createdAt,value
2022-12-26T00:00:00.292Z,992.4
2022-12-26T00:10:00.273Z,992.2
2022-12-26T00:20:00.253Z,992.1
2022-12-26T00:30:00.261Z,992.1
2022-12-26T00:40:00.308Z,992.3
2022-12-26T00:50:13.194Z,992.2
2022-12-26T01:00:00.355Z,992.1
2022-12-26T01:10:00.275Z,992.1
2022-12-26T01:20:00.255Z,992.2
2022-12-26T01:30:00.260Z,992.1
2022-12-26T01:40:00.272Z,992.0
2022-12-26T01:50:00.262Z,991.8
2022-12-26T02:00:00.279Z,991.9
2022-12-26T02:10:00.294Z,991.9
2022-12-26T02:20:00.256Z,991.7
2022-12-26T02:30:00.252Z,991.4
2022-12-26T02:40:00.399Z,991.5
2022-12-26T02:50:00.259Z,991.5
2022-12-26T03:00:00.320Z,991.5
2022-12-26T03:10:00.261Z,991.5
2022-12-26T03:20:00.392Z,991.5
2022-12-26T03:30:00.252Z,991.5
2022-12-26T03:40:00.264Z,991.6
2022-12-26T03:50:00.223Z,991.6
2022-12-26T04:00:00.431Z,991.6
2022-12-26T04:10:00.266Z,991.7
2022-12-26T04:20:00.356Z,991.6
2022-12-26T04:30:00.250Z,991.6
2022-12-26T04:40:00.366Z,991.6
2022-12-26T04:50:00.250Z,991.5
2022-12-26T05:00:00.321Z,991.5
2022-12-26T05:10:00.257Z,991.4
2022-12-26T05:20:00.281Z,991.5
2022-12-26T05:30:00.305Z,991.4
2022-12-26T05:40:00.262Z,991.4
2022-12-26T05:50:00.319Z,991.3
2022-12-26T06:00:00.337Z,991.4
2022-12-26T06:10:00.376Z,991.4
2022-12-26T06:20:00.231Z,991.3
2022-12-26T06:30:00.283Z,991.3
2022-12-26T06:40:00.290Z,991.3
2022-12-26T06:50:00.243Z,991.3
2022-12-26T07:00:00.262Z,991.4
2022-12-26T07:10:00.263Z,991.6
2022-12-26T07:20:00.259Z,991.5
2022-12-26T07:30:00.255Z,991.8
2022-12-26T07:40:00.301Z,991.7
2022-12-26T07:50:00.263Z,991.6
2022-12-26T08:00:00.399Z,991.6
2022-12-26T08:10:00.295Z,991.8
2022-12-26T08:20:00.269Z,991.8
2022-12-26T08:30:00.268Z,992.0
2022-12-26T08:40:00.303Z,991.9
2022-12-26T08:50:00.244Z,991.9
2022-12-26T09:00:00.314Z,992.1
2022-12-26T09:10:00.234Z,992.0
2022-12-26T09:20:00.291Z,992.1
2022-12-26T09:30:00.272Z,992.2
2022-12-26T09:40:00.353Z,992.3
2022-12-26T09:50:00.337Z,992.3
2022-12-26T10:00:00.378Z,992.3
2022-12-26T10:10:00.325Z,992.2
2022-12-26T10:20:00.377Z,991.9
2022-12-26T10:30:00.396Z,991.7
2022-12-26T10:40:00.487Z,991.7
2022-12-26T10:50:00.372Z,991.6
2022-12-26T11:00:00.540Z,991.6
2022-12-26T11:10:00.353Z,991.4
2022-12-26T11:20:00.380Z,991.2
2022-12-26T11:30:00.245Z,991.2
2022-12-26T11:40:00.429Z,991.2
2022-12-26T11:50:00.273Z,991.2
2022-12-26T12:00:00.253Z,991.1
2022-12-26T12:10:00.239Z,991.0
2022-12-26T12:20:00.232Z,991.0
2022-12-26T12:30:00.240Z,991.0
2022-12-26T12:40:00.243Z,991.0
2022-12-26T12:50:00.264Z,991.0
2022-12-26T13:00:00.265Z,990.9
2022-12-26T13:10:00.253Z,990.9
2022-12-26T13:20:02.323Z,990.9
2022-12-26T13:30:00.285Z,991.0
2022-12-26T13:40:00.267Z,991.1
2022-12-26T13:50:00.253Z,991.0
2022-12-26T14:00:00.263Z,991.1
2022-12-26T14:10:00.264Z,991.1
2022-12-26T14:20:00.249Z,991.2
2022-12-26T14:30:00.233Z,991.2
2022-12-26T14:40:00.258Z,991.1
2022-12-26T14:50:00.232Z,991.1
2022-12-26T15:00:03.598Z,991.1
2022-12-26T15:10:00.279Z,991.0
2022-12-26T15:20:00.249Z,990.9
2022-12-26T15:30:00.261Z,990.9
2022-12-26T15:40:00.244Z,991.0
2022-12-26T15:50:00.239Z,991.0
2022-12-26T16:00:00.254Z,990.9
2022-12-26T16:10:00.264Z,990.8
2022-12-26T16:20:00.354Z,990.7
2022-12-26T16:30:01.407Z,990.6
2022-12-26T16:40:00.247Z,990.6
2022-12-26T16:50:00.253Z,990.7
2022-12-26T17:00:00.275Z,990.7
2022-12-26T17:10:00.280Z,990.8
2022-12-26T17:20:00.268Z,990.7
2022-12-26T17:30:00.258Z,990.7
2022-12-26T17:40:03.021Z,990.5
2022-12-26T17:50:00.257Z,990.5
2022-12-26T18:00:00.272Z,990.4
2022-12-26T18:10:00.287Z,990.3
2022-12-26T18:20:00.260Z,990.1
2022-12-26T18:30:00.275Z,990.1
2022-12-26T18:40:00.266Z,989.9
2022-12-26T18:50:00.276Z,990.1
2022-12-26T19:00:00.278Z,990.1
2022-12-26T19:10:00.275Z,990.2
2022-12-26T19:20:00.237Z,990.1
2022-12-26T19:30:00.251Z,990.1
2022-12-26T19:40:00.234Z,990.1
2022-12-26T19:50:00.253Z,990.3
2022-12-26T20:00:00.364Z,990.4
2022-12-26T20:10:00.257Z,990.4
2022-12-26T20:20:00.255Z,990.2
2022-12-26T20:30:00.251Z,990.1
2022-12-26T20:40:00.268Z,989.9
2022-12-26T20:50:00.234Z,990.0
2022-12-26T21:00:00.320Z,990.2
2022-12-26T21:10:00.273Z,990.3
2022-12-26T21:20:00.246Z,990.2
2022-12-26T21:30:00.246Z,990.1
2022-12-26T21:40:00.369Z,990.3
2022-12-26T21:50:00.260Z,990.2
2022-12-26T22:00:00.332Z,990.2
2022-12-26T22:10:00.277Z,990.1
2022-12-26T22:20:00.224Z,990.1
2022-12-26T22:30:00.283Z,989.9
2022-12-26T22:40:00.274Z,990.1
2022-12-26T22:50:00.251Z,990.3
2022-12-26T23:00:09.221Z,990.4
2022-12-26T23:10:00.265Z,990.6
2022-12-26T23:20:00.235Z,990.6
2022-12-26T23:30:00.282Z,990.6
2022-12-26T23:40:00.256Z,990.8
2022-12-26T23:50:00.286Z,990.7
